Mc Dowell, West Virginia
Current Conditions -  °F | °C
As of 2:03 PM on Thursday 30 Oct 2014 (Local Time) from KBLF Reporting Station
Scattered Clouds Scattered Clouds  
Wind Chill: 45°   Ceiling: Unl
Heat Index: 47°   Visibility: 10mi
Dew Point: 33°   Wind: 5mph
Humidity: 59%   Direction: 340°NNW
Pressure: 30.06"   Gusts: NA
Location:  37.3807°N, 81.4099°W
Report Text: KBLF 301803Z AUTO 34004KT 10SM SCT025 08/01 A3006 RMK AO2 T00830006
Loading
Personal Weather Stations






























Interactive Weather Map
Tropical Storm Tracking
New forecast layout! Learn more

10-Day Weather Forecast

Advertisements
Track Severe Weather on mobile